Time;durP1;ratioP1;P1;durP2;ratioP2;P2;SDS_P1;SDS_P2;PMS_P1;PMS_P2;Temp;Humidity;BMP_temperature;BMP_pressure;BME280_temperature;BME280_humidity;BME280_pressure;Samples;Min_cycle;Max_cycle;Signal;HPM_P1;HPM_P2
2024/04/09 00:00:45;;;;;;;18.33;4.25;;;16.50;99.90;;;;;;5567326;25;20269;-69
2024/04/09 00:03:11;;;;;;;12.18;4.90;;;16.50;24.40;;;;;;5567448;25;20247;-69
2024/04/09 00:05:40;;;;;;;17.67;4.82;;;16.60;61.00;;;;;;5567942;25;20754;-70
2024/04/09 00:08:07;;;;;;;22.52;4.57;;;16.60;1.00;;;;;;5565123;25;20619;-69
2024/04/09 00:10:36;;;;;;;14.80;4.15;;;16.70;1.00;;;;;;5565734;25;20338;-70
2024/04/09 00:13:04;;;;;;;16.45;4.93;;;16.60;99.90;;;;;;5565978;25;20247;-69
2024/04/09 00:15:33;;;;;;;17.60;4.55;;;16.50;99.90;;;;;;5565758;25;20213;-70
2024/04/09 00:18:11;;;;;;;15.50;4.60;;;16.50;99.90;;;;;;5566259;25;20213;-68
2024/04/09 00:20:40;;;;;;;15.85;4.35;;;16.50;99.90;;;;;;5567475;25;20307;-69
2024/04/09 00:23:06;;;;;;;17.00;4.70;;;16.50;1.00;;;;;;5566448;25;20217;-69
2024/04/09 00:25:37;;;;;;;14.45;4.38;;;16.50;99.90;;;;;;5565831;25;20821;-70
2024/04/09 00:28:03;;;;;;;12.18;4.32;;;16.50;99.90;;;;;;5565062;25;20210;-70
2024/04/09 00:30:32;;;;;;;22.38;4.80;;;16.40;99.90;;;;;;5565083;25;20233;-70
2024/04/09 00:32:57;;;;;;;15.00;4.47;;;16.30;99.90;;;;;;5564965;25;20249;-70
2024/04/09 00:35:31;;;;;;;12.00;3.90;;;16.20;99.90;;;;;;5564858;25;20706;-69
2024/04/09 00:37:57;;;;;;;13.52;3.97;;;16.10;99.90;;;;;;5565550;25;20549;-70
2024/04/09 00:40:26;;;;;;;15.25;4.07;;;16.00;1.00;;;;;;5565493;25;20229;-70
2024/04/09 00:42:53;;;;;;;14.48;4.45;;;16.00;1.00;;;;;;5562787;25;20309;-70
2024/04/09 00:45:22;;;;;;;13.90;4.18;;;15.90;1.00;;;;;;5561089;25;20264;-70
2024/04/09 00:47:49;;;;;;;12.93;3.90;;;15.90;99.90;;;;;;5565718;25;20282;-70
2024/04/09 00:50:19;;;;;;;13.63;5.38;;;15.90;99.90;;;;;;5567668;25;20656;-70
2024/04/09 00:52:48;;;;;;;16.58;4.20;;;15.90;59.10;;;;;;5567493;25;20701;-70
2024/04/09 00:55:22;;;;;;;15.43;3.97;;;15.80;1.00;;;;;;5567803;25;20217;-70
2024/04/09 00:57:48;;;;;;;13.75;3.97;;;15.70;1.00;;;;;;5567634;25;20206;-70
2024/04/09 01:00:17;;;;;;;15.77;3.95;;;15.60;1.00;;;;;;5567472;25;20774;-69
2024/04/09 01:02:48;;;;;;;12.35;4.18;;;15.60;1.00;;;;;;5567609;25;20706;-69
2024/04/09 01:05:17;;;;;;;14.38;4.22;;;15.50;1.00;;;;;;5567394;25;20567;-70
2024/04/09 01:07:43;;;;;;;14.23;4.30;;;15.50;99.90;;;;;;5567518;25;20306;-70
2024/04/09 01:10:15;;;;;;;17.20;4.57;;;15.30;99.90;;;;;;5568393;25;20718;-69
2024/04/09 01:12:41;;;;;;;18.80;4.90;;;15.30;99.90;;;;;;5568513;25;20217;-69
2024/04/09 01:15:11;;;;;;;23.88;4.75;;;15.30;99.90;;;;;;5568606;25;20253;-70
2024/04/09 01:17:37;;;;;;;20.88;5.28;;;15.30;1.00;;;;;;5567634;25;20297;-69
2024/04/09 01:20:07;;;;;;;15.20;4.20;;;15.30;1.00;;;;;;5568479;25;20229;-70
2024/04/09 01:22:36;;;;;;;15.07;4.53;;;15.30;1.00;;;;;;5568891;25;20209;-70
2024/04/09 01:25:06;;;;;;;16.65;4.00;;;15.20;1.00;;;;;;5567331;25;20602;-70
2024/04/09 01:27:33;;;;;;;12.63;4.28;;;15.20;1.00;;;;;;5567795;25;20706;-70
2024/04/09 01:30:05;;;;;;;13.98;4.47;;;15.10;1.00;;;;;;5567016;25;20240;-69
2024/04/09 01:32:32;;;;;;;12.02;4.78;;;15.10;1.00;;;;;;5567347;25;20213;-69
2024/04/09 01:35:00;;;;;;;18.17;4.73;;;15.00;1.00;;;;;;5566925;25;20304;-69
2024/04/09 01:37:27;;;;;;;12.57;4.15;;;14.90;1.00;;;;;;5566906;25;20217;-69
2024/04/09 01:39:58;;;;;;;15.85;4.70;;;14.80;1.00;;;;;;5567845;25;20256;-68
2024/04/09 01:42:24;;;;;;;16.77;4.50;;;14.90;1.00;;;;;;5567440;25;20182;-69
2024/04/09 01:44:53;;;;;;;10.10;4.45;;;14.90;1.00;;;;;;5567226;25;20216;-70
2024/04/09 01:47:19;;;;;;;20.70;5.25;;;14.80;1.00;;;;;;5566752;25;20255;-69
2024/04/09 01:49:47;;;;;;;18.77;5.10;;;14.80;1.00;;;;;;5566762;25;20229;-68
2024/04/09 01:52:14;;;;;;;15.43;4.63;;;14.90;1.00;;;;;;5567680;25;20259;-70
2024/04/09 01:54:45;;;;;;;21.48;4.32;;;14.90;1.00;;;;;;5567147;25;20309;-69
2024/04/09 01:57:14;;;;;;;17.30;4.53;;;14.90;99.90;;;;;;5567375;25;20252;-70
2024/04/09 01:59:43;;;;;;;18.17;5.28;;;14.90;1.00;;;;;;5565683;25;20221;-68
2024/04/09 02:02:10;;;;;;;14.27;4.67;;;14.80;99.90;;;;;;5566936;25;20268;-69
2024/04/09 02:04:39;;;;;;;18.08;5.07;;;14.90;99.90;;;;;;5567033;25;20209;-69
2024/04/09 02:07:05;;;;;;;16.85;4.53;;;14.80;1.00;;;;;;5566621;25;20578;-69
2024/04/09 02:09:33;;;;;;;17.92;5.55;;;14.80;1.00;;;;;;5566698;25;20252;-69
2024/04/09 02:11:59;;;;;;;12.82;4.63;;;14.80;1.00;;;;;;5566845;25;20222;-69
2024/04/09 02:14:30;;;;;;;17.70;4.25;;;14.80;1.00;;;;;;5566499;25;20251;-69
2024/04/09 02:16:56;;;;;;;18.15;4.80;;;14.80;1.00;;;;;;5566519;25;20244;-69
2024/04/09 02:19:25;;;;;;;12.65;4.35;;;14.70;1.00;;;;;;5566110;25;20241;-68
2024/04/09 02:21:51;;;;;;;20.92;4.55;;;14.70;1.00;;;;;;5566286;25;20244;-69
2024/04/09 02:24:20;;;;;;;17.67;5.13;;;14.70;1.00;;;;;;5566434;25;20269;-69
2024/04/09 02:26:47;;;;;;;17.20;4.60;;;14.70;1.00;;;;;;5566059;25;20233;-69
2024/04/09 02:29:15;;;;;;;12.40;4.35;;;14.70;1.00;;;;;;5566120;25;20245;-69
2024/04/09 02:31:46;;;;;;;21.67;4.70;;;14.70;1.00;;;;;;5567001;25;20225;-70
2024/04/09 02:34:13;;;;;;;20.17;4.63;;;14.60;1.00;;;;;;5566146;25;20304;-69
2024/04/09 02:36:42;;;;;;;16.55;4.40;;;14.60;1.00;;;;;;5566536;25;20217;-69
2024/04/09 02:39:08;;;;;;;20.83;5.73;;;14.50;1.00;;;;;;5566557;25;20229;-69
2024/04/09 02:41:39;;;;;;;14.40;4.53;;;14.50;1.00;;;;;;5565868;25;20269;-69
2024/04/09 02:44:05;;;;;;;15.70;5.10;;;14.50;1.00;;;;;;5566215;25;20205;-69
2024/04/09 02:46:33;;;;;;;22.52;5.30;;;14.50;1.00;;;;;;5566256;25;20601;-68
2024/04/09 02:49:03;;;;;;;12.25;4.70;;;14.50;1.00;;;;;;5565713;25;20260;-69
2024/04/09 02:51:31;;;;;;;15.73;4.68;;;14.50;1.00;;;;;;5565687;25;20217;-69
2024/04/09 02:53:57;;;;;;;18.40;4.35;;;14.50;1.00;;;;;;5566540;25;20222;-69
2024/04/09 02:56:26;;;;;;;14.80;4.37;;;14.40;1.00;;;;;;5566831;25;20252;-69
2024/04/09 02:58:52;;;;;;;17.20;5.37;;;14.40;1.00;;;;;;5566701;25;20249;-69
2024/04/09 03:01:20;;;;;;;22.37;4.60;;;14.40;1.00;;;;;;5565563;25;20315;-69
2024/04/09 03:03:46;;;;;;;16.60;4.40;;;14.40;1.00;;;;;;5565599;25;20706;-69
2024/04/09 03:06:21;;;;;;;15.63;4.33;;;14.30;1.00;;;;;;5565647;25;20247;-70
2024/04/09 03:08:50;;;;;;;14.77;4.32;;;14.20;1.00;;;;;;5566182;25;20243;-70
2024/04/09 03:11:19;;;;;;;18.53;6.10;;;14.20;1.00;;;;;;5565906;25;20297;-69
2024/04/09 03:13:47;;;;;;;16.20;4.03;;;14.10;1.00;;;;;;5568514;25;20738;-70
2024/04/09 03:16:16;;;;;;;17.23;5.17;;;14.00;1.00;;;;;;5565372;25;20212;-70
2024/04/09 03:18:43;;;;;;;18.63;4.63;;;13.90;1.00;;;;;;5565223;25;20308;-69
2024/04/09 03:21:12;;;;;;;17.33;4.60;;;13.90;1.00;;;;;;5565673;25;20317;-70
2024/04/09 03:23:42;;;;;;;19.73;5.47;;;13.80;3.60;;;;;;5565564;25;20260;-70
2024/04/09 03:26:12;;;;;;;13.47;4.70;;;13.80;1.00;;;;;;5565615;25;20213;-70
2024/04/09 03:28:38;;;;;;;15.67;5.53;;;13.90;13.00;;;;;;5565235;25;20213;-68
2024/04/09 03:31:07;;;;;;;19.23;6.53;;;13.80;19.90;;;;;;5565491;25;20628;-69
2024/04/09 03:33:33;;;;;;;15.27;6.67;;;13.80;67.50;;;;;;5565693;25;20225;-69
2024/04/09 03:36:03;;;;;;;21.27;7.03;;;13.70;99.90;;;;;;5566359;25;20225;-71
2024/04/09 03:38:31;;;;;;;14.33;6.37;;;13.70;99.90;;;;;;5564989;25;20213;-69
2024/04/09 03:41:04;;;;;;;17.20;5.10;;;13.50;99.90;;;;;;5565060;25;20213;-69
2024/04/09 03:43:33;;;;;;;18.00;5.60;;;13.50;99.90;;;;;;5565025;25;20205;-69
2024/04/09 03:46:03;;;;;;;16.37;5.63;;;13.50;99.90;;;;;;5567769;25;20216;-70
2024/04/09 03:48:31;;;;;;;17.90;5.00;;;13.50;99.90;;;;;;5564958;25;20217;-69
2024/04/09 03:50:58;;;;;;;17.37;5.50;;;13.50;99.90;;;;;;5565077;25;20221;-70
2024/04/09 03:53:26;;;;;;;15.97;5.33;;;13.50;99.90;;;;;;5564950;25;20749;-70
2024/04/09 03:55:54;;;;;;;12.97;4.23;;;13.40;99.90;;;;;;5565421;25;20721;-69
2024/04/09 03:58:25;;;;;;;10.60;4.83;;;13.40;99.90;;;;;;5564929;25;20257;-69
2024/04/09 04:00:55;;;;;;;15.33;5.37;;;13.30;99.90;;;;;;5565217;25;20234;-69
2024/04/09 04:03:25;;;;;;;21.23;5.73;;;13.30;99.90;;;;;;5564752;25;20212;-69
2024/04/09 04:05:53;;;;;;;17.43;5.70;;;13.20;99.90;;;;;;5564682;25;20263;-69
2024/04/09 04:08:24;;;;;;;18.33;5.90;;;13.20;99.90;;;;;;5564712;25;20406;-69
2024/04/09 04:10:55;;;;;;;16.20;5.27;;;13.20;99.90;;;;;;5564744;25;20208;-69
2024/04/09 04:13:29;;;;;;;19.57;5.57;;;13.30;99.90;;;;;;5563853;25;20639;-69
2024/04/09 04:16:01;;;;;;;18.97;6.03;;;13.20;99.90;;;;;;5565321;25;20214;-68
2024/04/09 04:18:31;;;;;;;21.17;6.07;;;13.20;99.90;;;;;;5565815;25;20225;-67
2024/04/09 04:20:58;;;;;;;19.30;6.10;;;13.30;99.90;;;;;;5564769;25;20209;-67
2024/04/09 04:23:28;;;;;;;14.47;5.70;;;13.20;99.90;;;;;;5563213;25;20285;-67
2024/04/09 04:25:58;;;;;;;19.00;5.77;;;13.20;99.90;;;;;;5564819;25;20575;-67
2024/04/09 04:28:30;;;;;;;13.60;5.03;;;13.10;99.90;;;;;;5564833;25;20273;-66
2024/04/09 04:30:57;;;;;;;16.53;5.27;;;13.10;99.90;;;;;;5564179;25;20229;-66
2024/04/09 04:33:28;;;;;;;12.33;5.00;;;13.10;99.90;;;;;;5564333;25;20259;-66
2024/04/09 04:35:55;;;;;;;17.87;5.57;;;13.00;99.90;;;;;;5564288;25;20248;-66
2024/04/09 04:38:25;;;;;;;18.73;5.07;;;13.00;99.90;;;;;;5564395;25;20221;-66
2024/04/09 04:40:52;;;;;;;18.40;5.40;;;13.00;99.90;;;;;;5564760;25;20705;-66
2024/04/09 04:43:21;;;;;;;20.30;6.27;;;13.00;99.90;;;;;;5564167;25;20275;-67
2024/04/09 04:45:52;;;;;;;17.70;5.20;;;13.00;99.90;;;;;;5563896;25;20251;-67
2024/04/09 04:48:20;;;;;;;20.27;5.57;;;13.00;99.90;;;;;;5565065;25;20217;-68
2024/04/09 04:50:49;;;;;;;23.10;5.67;;;13.00;99.90;;;;;;5563680;25;20244;-68
2024/04/09 04:53:18;;;;;;;17.90;5.73;;;13.00;99.90;;;;;;5563756;25;20217;-69
2024/04/09 04:55:46;;;;;;;21.83;5.87;;;13.00;99.90;;;;;;5563422;25;20586;-68
2024/04/09 04:58:14;;;;;;;20.53;6.03;;;13.00;99.90;;;;;;5560178;25;20260;-68
2024/04/09 05:00:40;;;;;;;19.03;6.13;;;13.00;99.90;;;;;;5562822;25;20229;-67
2024/04/09 05:03:12;;;;;;;11.67;5.37;;;13.00;99.90;;;;;;5563628;25;20281;-67
2024/04/09 05:05:38;;;;;;;16.17;5.60;;;13.10;99.90;;;;;;5563835;25;20178;-68
2024/04/09 05:08:07;;;;;;;11.67;5.27;;;13.10;99.90;;;;;;5563992;25;20221;-68
2024/04/09 05:10:32;;;;;;;18.27;5.57;;;13.00;99.90;;;;;;5563706;25;20826;-67
2024/04/09 05:13:01;;;;;;;21.63;5.77;;;13.00;99.90;;;;;;5563475;25;20221;-68
2024/04/09 05:15:27;;;;;;;20.53;5.60;;;12.90;99.90;;;;;;5563513;25;20253;-68
2024/04/09 05:17:56;;;;;;;21.50;6.60;;;13.00;99.90;;;;;;5563586;25;20225;-67
2024/04/09 05:20:26;;;;;;;17.67;5.83;;;13.10;99.90;;;;;;5563534;25;20229;-67
2024/04/09 05:22:56;;;;;;;20.33;5.00;;;13.40;24.40;;;;;;5563410;25;20338;-69
2024/04/09 05:25:22;;;;;;;15.20;5.90;;;13.80;1.00;;;;;;5563307;25;20220;-69
2024/04/09 05:27:51;;;;;;;21.73;6.33;;;14.00;1.00;;;;;;5563115;25;20305;-66
2024/04/09 05:30:20;;;;;;;26.60;7.13;;;14.10;1.00;;;;;;5563355;25;20229;-66
2024/04/09 05:32:46;;;;;;;19.20;5.43;;;14.20;1.00;;;;;;5563027;25;20264;-66
2024/04/09 05:35:15;;;;;;;23.83;5.90;;;14.20;1.00;;;;;;5566778;25;20277;-66
2024/04/09 05:37:43;;;;;;;16.00;5.37;;;14.70;94.70;;;;;;5566946;25;20300;-66
2024/04/09 05:40:12;;;;;;;15.77;4.77;;;14.90;22.20;;;;;;5566819;25;20225;-66
2024/04/09 05:42:39;;;;;;;15.80;4.43;;;15.00;1.00;;;;;;5566931;25;20217;-66
2024/04/09 05:45:11;;;;;;;21.10;5.77;;;15.00;1.00;;;;;;5566447;25;20218;-66
2024/04/09 05:47:36;;;;;;;17.23;4.83;;;15.10;99.90;;;;;;5566641;25;20285;-66
2024/04/09 05:50:06;;;;;;;15.10;4.47;;;15.10;1.00;;;;;;5566527;25;20229;-66
2024/04/09 05:52:32;;;;;;;18.40;5.13;;;15.20;99.90;;;;;;5566658;25;20303;-67
2024/04/09 05:55:01;;;;;;;14.20;5.30;;;15.30;93.50;;;;;;5566568;25;20255;-66
2024/04/09 05:57:32;;;;;;;12.13;3.60;;;15.40;99.90;;;;;;5566608;25;20222;-66
2024/04/09 05:59:58;;;;;;;12.98;4.45;;;15.60;99.90;;;;;;5566572;25;20303;-66
2024/04/09 06:02:27;;;;;;;12.15;4.05;;;15.70;99.90;;;;;;5566646;25;20256;-66
2024/04/09 06:04:53;;;;;;;9.82;3.50;;;15.70;1.00;;;;;;5566397;25;20253;-66
2024/04/09 06:07:27;;;;;;;9.52;3.10;;;15.80;99.90;;;;;;5566391;25;20646;-66
2024/04/09 06:09:53;;;;;;;9.65;2.83;;;15.90;99.90;;;;;;5566312;25;20678;-67
2024/04/09 06:12:25;;;;;;;7.00;2.72;;;16.00;99.90;;;;;;5566404;25;20218;-66
2024/04/09 06:14:52;;;;;;;17.13;2.72;;;16.20;1.00;;;;;;5566243;25;20247;-66
2024/04/09 06:17:21;;;;;;;7.45;2.33;;;16.20;1.00;;;;;;5566298;25;20751;-66
2024/04/09 06:19:47;;;;;;;9.50;2.40;;;16.30;99.90;;;;;;5566100;25;20262;-66
2024/04/09 06:22:16;;;;;;;14.65;3.00;;;16.30;1.00;;;;;;5566081;25;20284;-66
2024/04/09 06:24:45;;;;;;;5.80;2.25;;;16.30;13.30;;;;;;5566389;25;20209;-66
2024/04/09 06:27:14;;;;;;;7.75;2.25;;;16.30;99.90;;;;;;5565889;25;20221;-66
2024/04/09 06:29:43;;;;;;;6.03;1.77;;;16.30;99.90;;;;;;5565832;25;20318;-66
2024/04/09 06:32:11;;;;;;;5.65;2.17;;;16.30;99.90;;;;;;5566422;25;20225;-66
2024/04/09 06:34:37;;;;;;;5.88;2.28;;;16.30;99.90;;;;;;5565775;25;20213;-66
2024/04/09 06:37:06;;;;;;;4.85;1.67;;;16.20;99.90;;;;;;5566140;25;20217;-66
2024/04/09 06:39:32;;;;;;;5.53;1.85;;;16.20;1.00;;;;;;5565565;25;20229;-62
2024/04/09 06:42:02;;;;;;;4.30;1.90;;;16.20;99.90;;;;;;5565551;25;20220;-66
2024/04/09 06:44:29;;;;;;;7.10;2.10;;;16.20;1.00;;;;;;5565527;25;20206;-66
2024/04/09 06:47:00;;;;;;;4.60;1.70;;;16.10;1.00;;;;;;5565003;25;20698;-66
2024/04/09 06:49:26;;;;;;;3.80;1.63;;;16.10;1.00;;;;;;5566442;25;20229;-67
2024/04/09 06:51:54;;;;;;;7.50;2.28;;;16.10;99.90;;;;;;5565677;25;20580;-67
2024/04/09 06:54:21;;;;;;;6.50;2.10;;;16.10;99.90;;;;;;5565680;25;20225;-67
2024/04/09 06:56:50;;;;;;;5.57;2.10;;;16.10;99.90;;;;;;5565249;25;20706;-66
2024/04/09 06:59:16;;;;;;;8.90;1.58;;;16.10;1.00;;;;;;5565662;25;20284;-66
2024/04/09 07:01:44;;;;;;;4.50;1.90;;;16.20;1.00;;;;;;5565621;25;20229;-66
2024/04/09 07:04:13;;;;;;;3.60;1.52;;;16.10;1.00;;;;;;5565550;25;20395;-66
2024/04/09 07:06:42;;;;;;;2.92;1.45;;;16.10;99.90;;;;;;5566011;25;20320;-66
2024/04/09 07:09:07;;;;;;;3.92;1.70;;;16.10;1.00;;;;;;5565432;25;20252;-67
2024/04/09 07:11:36;;;;;;;3.80;1.90;;;16.00;1.00;;;;;;5565775;25;20222;-67
2024/04/09 07:14:02;;;;;;;3.70;1.85;;;16.00;1.00;;;;;;5565484;25;20706;-66
2024/04/09 07:16:32;;;;;;;7.75;2.03;;;15.90;1.00;;;;;;5565597;25;20255;-66
2024/04/09 07:18:58;;;;;;;4.88;1.60;;;16.00;1.00;;;;;;5565244;25;20255;-66
2024/04/09 07:21:29;;;;;;;4.90;1.80;;;16.20;1.00;;;;;;5565398;25;20554;-66
2024/04/09 07:23:55;;;;;;;6.53;1.58;;;16.30;1.00;;;;;;5566014;25;20238;-66
2024/04/09 07:26:23;;;;;;;2.53;1.45;;;16.30;1.00;;;;;;5565182;25;20699;-66
2024/04/09 07:28:51;;;;;;;4.25;1.50;;;16.40;99.90;;;;;;5565465;25;20241;-67
2024/04/09 07:31:19;;;;;;;5.50;1.67;;;16.40;1.00;;;;;;5565181;25;20225;-67
2024/04/09 07:33:47;;;;;;;1.95;1.13;;;16.40;99.90;;;;;;5565253;25;20209;-67
2024/04/09 07:36:15;;;;;;;5.20;1.52;;;16.50;99.90;;;;;;5565243;25;20251;-67
2024/04/09 07:38:44;;;;;;;3.40;1.98;;;16.60;85.70;;;;;;5565124;25;20213;-67
2024/04/09 07:41:12;;;;;;;4.57;1.50;;;16.60;1.00;;;;;;5565031;25;20229;-66
2024/04/09 07:43:38;;;;;;;7.47;2.00;;;16.40;99.90;;;;;;5564951;25;20214;-66
2024/04/09 07:46:07;;;;;;;3.10;1.50;;;16.40;99.90;;;;;;5564932;25;20255;-66
2024/04/09 07:48:33;;;;;;;3.25;1.45;;;16.40;1.00;;;;;;5564893;25;20213;-66
2024/04/09 07:51:03;;;;;;;5.20;1.52;;;16.20;99.90;;;;;;5564845;25;20216;-66
2024/04/09 07:53:29;;;;;;;7.18;1.92;;;16.10;1.00;;;;;;5564662;25;20259;-66
2024/04/09 07:56:00;;;;;;;3.80;1.73;;;16.00;1.00;;;;;;5564973;25;20619;-67
2024/04/09 07:58:26;;;;;;;3.00;1.80;;;16.00;99.90;;;;;;5563318;25;20324;-67
2024/04/09 08:00:54;;;;;;;5.38;1.70;;;15.90;99.90;;;;;;5564737;25;20746;-67
2024/04/09 08:03:21;;;;;;;4.05;1.40;;;15.70;1.00;;;;;;5564748;25;20218;-68
2024/04/09 08:05:50;;;;;;;3.50;1.50;;;15.20;1.00;;;;;;5564751;25;20255;-69
2024/04/09 08:08:16;;;;;;;5.20;1.67;;;14.90;1.00;;;;;;5564882;25;20225;-69
2024/04/09 08:10:45;;;;;;;2.47;1.50;;;14.60;1.00;;;;;;5564926;25;20255;-69
2024/04/09 08:13:14;;;;;;;2.33;1.00;;;14.40;1.00;;;;;;5565157;25;20252;-69
2024/04/09 08:15:42;;;;;;;2.67;1.20;;;13.90;1.00;;;;;;5565059;25;20213;-69
2024/04/09 08:18:08;;;;;;;4.00;1.00;;;13.70;1.00;;;;;;5564477;25;20316;-68
2024/04/09 08:20:38;;;;;;;1.80;0.50;;;13.50;1.00;;;;;;5564503;25;20249;-68
2024/04/09 08:23:04;;;;;;;5.33;0.80;;;13.20;1.00;;;;;;5565258;25;20710;-68
2024/04/09 08:25:34;;;;;;;0.57;0.57;;;13.10;99.90;;;;;;5564764;25;20260;-68
2024/04/09 08:28:01;;;;;;;0.60;0.40;;;13.00;99.90;;;;;;5564685;25;20267;-69
2024/04/09 08:30:33;;;;;;;1.97;0.60;;;12.80;41.00;;;;;;5564292;25;20241;-69
2024/04/09 08:32:59;;;;;;;0.60;0.50;;;12.70;1.00;;;;;;5564611;25;20289;-69
2024/04/09 08:35:28;;;;;;;4.00;0.70;;;12.60;1.00;;;;;;5564159;25;20317;-70
2024/04/09 08:37:54;;;;;;;0.40;0.40;;;12.60;99.90;;;;;;5564078;25;20246;-69
2024/04/09 08:40:24;;;;;;;1.27;0.47;;;12.50;99.90;;;;;;5564034;25;20261;-69
2024/04/09 08:42:52;;;;;;;1.57;0.40;;;12.50;99.90;;;;;;5564023;25;20221;-70
2024/04/09 08:45:21;;;;;;;1.13;0.60;;;12.50;1.00;;;;;;5564006;25;20319;-70
2024/04/09 08:47:51;;;;;;;1.33;0.50;;;12.50;99.90;;;;;;5564043;25;20217;-69
2024/04/09 08:50:20;;;;;;;1.07;0.80;;;12.50;99.90;;;;;;5563882;25;20255;-69
2024/04/09 08:52:47;;;;;;;1.87;0.40;;;12.50;1.00;;;;;;5564227;25;20263;-69
2024/04/09 08:55:18;;;;;;;0.83;0.40;;;12.40;1.00;;;;;;5564181;25;20268;-69
2024/04/09 08:57:44;;;;;;;1.10;0.63;;;12.40;99.90;;;;;;5563913;25;20205;-69
2024/04/09 09:00:16;;;;;;;1.70;0.50;;;12.40;1.00;;;;;;5563790;25;20248;-69
2024/04/09 09:02:43;;;;;;;0.37;0.37;;;12.30;99.90;;;;;;5564102;25;20241;-69
2024/04/09 09:05:22;;;;;;;3.43;0.50;;;12.10;99.90;;;;;;5563625;25;20322;-70
2024/04/09 09:07:58;;;;;;;0.70;0.70;;;11.90;99.90;;;;;;5563648;25;20557;-69
2024/04/09 09:10:26;;;;;;;0.87;0.87;;;11.80;99.90;;;;;;5567693;25;20591;-69
2024/04/09 09:12:57;;;;;;;3.70;0.40;;;11.70;1.00;;;;;;5567288;25;20624;-69
2024/04/09 09:15:26;;;;;;;1.27;0.50;;;11.60;1.00;;;;;;5567168;25;20213;-69
2024/04/09 09:17:52;;;;;;;1.37;1.20;;;11.60;99.90;;;;;;5567165;25;20217;-69
2024/04/09 09:20:23;;;;;;;1.20;0.47;;;11.60;99.90;;;;;;5567246;25;20293;-69
2024/04/09 09:22:51;;;;;;;0.63;0.47;;;11.60;49.30;;;;;;5567852;25;20659;-69
2024/04/09 09:25:23;;;;;;;1.77;0.80;;;11.60;99.90;;;;;;5567208;25;20317;-69
2024/04/09 09:27:49;;;;;;;0.77;0.50;;;11.40;39.60;;;;;;5567232;25;20206;-70
2024/04/09 09:30:18;;;;;;;1.60;0.53;;;11.40;99.90;;;;;;5566850;25;20241;-70
2024/04/09 09:32:48;;;;;;;1.53;0.50;;;11.40;99.90;;;;;;5567129;25;20328;-70
2024/04/09 09:35:20;;;;;;;0.50;0.40;;;11.20;1.00;;;;;;5567390;25;20774;-70
2024/04/09 09:37:51;;;;;;;2.07;0.50;;;11.30;1.00;;;;;;5566819;25;20252;-70
2024/04/09 09:40:21;;;;;;;5.93;1.43;;;11.30;1.00;;;;;;5567160;25;20225;-70
2024/04/09 09:42:48;;;;;;;0.90;0.57;;;11.20;1.00;;;;;;5566721;25;20544;-70
2024/04/09 09:45:17;;;;;;;1.30;0.73;;;11.30;1.00;;;;;;5567232;25;20269;-71
2024/04/09 09:47:44;;;;;;;1.90;0.60;;;11.10;40.10;;;;;;5566724;25;20221;-70
2024/04/09 09:50:13;;;;;;;5.50;0.70;;;11.20;99.90;;;;;;5566542;25;20250;-71
2024/04/09 09:52:42;;;;;;;1.40;0.50;;;11.00;99.90;;;;;;5567122;25;20333;-71
2024/04/09 09:55:13;;;;;;;1.50;0.40;;;10.80;1.00;;;;;;5568034;25;20217;-70
2024/04/09 09:57:42;;;;;;;4.03;0.60;;;10.90;1.00;;;;;;5567674;25;20213;-70
2024/04/09 10:00:15;;;;;;;2.37;0.70;;;10.80;99.90;;;;;;5567183;25;20237;-69
2024/04/09 10:02:44;;;;;;;5.00;1.00;;;10.80;99.90;;;;;;5567273;25;20206;-70
2024/04/09 10:05:14;;;;;;;2.93;0.70;;;10.70;47.70;;;;;;5566783;25;20217;-70
2024/04/09 10:07:41;;;;;;;1.60;0.70;;;10.70;99.90;;;;;;5567461;25;20213;-70
2024/04/09 10:10:12;;;;;;;1.20;0.70;;;10.70;99.90;;;;;;5566684;25;20245;-69
2024/04/09 10:12:41;;;;;;;2.30;0.80;;;10.70;1.00;;;;;;5566701;25;20210;-69
2024/04/09 10:15:14;;;;;;;0.93;0.50;;;10.70;1.00;;;;;;5566952;25;20229;-69
2024/04/09 10:17:48;;;;;;;1.57;0.70;;;10.70;1.00;;;;;;5566670;25;20249;-69
2024/04/09 10:20:20;;;;;;;3.53;0.60;;;10.60;1.00;;;;;;5565253;25;20237;-68
2024/04/09 10:22:47;;;;;;;1.73;0.50;;;10.60;1.00;;;;;;5567008;25;20269;-69
2024/04/09 10:25:22;;;;;;;1.43;0.60;;;10.40;99.90;;;;;;5566676;25;20252;-69
2024/04/09 10:27:59;;;;;;;0.97;0.60;;;10.30;21.00;;;;;;5566313;25;20252;-69
2024/04/09 10:30:30;;;;;;;1.30;0.67;;;10.30;1.00;;;;;;5566481;25;20229;-69
2024/04/09 10:32:57;;;;;;;0.77;0.40;;;10.30;1.00;;;;;;5566316;25;20248;-69
2024/04/09 10:35:26;;;;;;;1.90;0.47;;;10.30;99.90;;;;;;5566635;25;20225;-69
2024/04/09 10:37:53;;;;;;;4.60;0.77;;;10.20;99.90;;;;;;5566343;25;20742;-68
2024/04/09 10:40:26;;;;;;;2.07;0.70;;;10.40;99.90;;;;;;5566431;25;20735;-69
2024/04/09 10:42:52;;;;;;;0.40;0.40;;;10.30;1.00;;;;;;5565927;25;20202;-68
2024/04/09 10:45:21;;;;;;;1.70;0.50;;;10.40;1.00;;;;;;5565896;25;20224;-70
2024/04/09 10:47:47;;;;;;;0.83;0.50;;;10.30;99.90;;;;;;5566305;25;20221;-69
2024/04/09 10:50:18;;;;;;;1.13;0.63;;;10.60;56.80;;;;;;5566396;25;20226;-70
2024/04/09 10:52:45;;;;;;;1.20;0.57;;;10.40;1.00;;;;;;5566378;25;20752;-69
2024/04/09 10:55:14;;;;;;;1.17;0.43;;;10.40;99.90;;;;;;5566413;25;20218;-67
2024/04/09 10:57:49;;;;;;;2.63;0.80;;;10.40;99.90;;;;;;5566352;25;20213;-67
2024/04/09 11:00:18;;;;;;;2.30;0.40;;;10.30;1.00;;;;;;5566296;25;20225;-67
2024/04/09 11:02:44;;;;;;;2.67;0.70;;;10.20;1.00;;;;;;5566296;25;20217;-68
2024/04/09 11:05:14;;;;;;;1.90;1.13;;;10.20;1.00;;;;;;5565831;25;20513;-68
2024/04/09 11:07:41;;;;;;;0.70;0.70;;;10.30;99.90;;;;;;5565764;25;20260;-70
2024/04/09 11:10:11;;;;;;;0.63;0.57;;;10.30;99.90;;;;;;5565950;25;20277;-69
2024/04/09 11:12:43;;;;;;;0.40;0.40;;;10.40;1.00;;;;;;5566640;25;20722;-68
2024/04/09 11:15:13;;;;;;;0.60;0.50;;;10.50;1.00;;;;;;5565525;25;20209;-68
2024/04/09 11:17:39;;;;;;;4.47;0.80;;;10.50;99.90;;;;;;5565607;25;20214;-69
2024/04/09 11:20:09;;;;;;;1.77;0.60;;;10.30;1.00;;;;;;5565753;25;20813;-68
2024/04/09 11:22:42;;;;;;;0.80;0.80;;;10.20;1.00;;;;;;5565429;25;20713;-68
2024/04/09 11:25:11;;;;;;;1.00;0.60;;;10.20;2.90;;;;;;5565434;25;20178;-69
2024/04/09 11:27:38;;;;;;;0.60;0.60;;;10.20;1.00;;;;;;5565666;25;20362;-69
2024/04/09 11:30:11;;;;;;;1.10;0.70;;;9.90;99.90;;;;;;5565526;25;20773;-69
2024/04/09 11:32:38;;;;;;;4.80;1.07;;;9.80;1.00;;;;;;5565798;25;20281;-69
2024/04/09 11:35:19;;;;;;;1.70;0.60;;;9.80;1.00;;;;;;5565507;25;20221;-68
2024/04/09 11:37:50;;;;;;;4.30;0.90;;;9.70;1.00;;;;;;5565602;25;20178;-69
2024/04/09 11:40:19;;;;;;;1.97;0.70;;;9.90;1.00;;;;;;5565534;25;20251;-69
2024/04/09 11:42:44;;;;;;;1.50;1.03;;;9.80;13.10;;;;;;5565428;25;20213;-67
2024/04/09 11:45:22;;;;;;;2.43;0.93;;;9.70;86.60;;;;;;5565425;25;20251;-68
2024/04/09 11:47:49;;;;;;;1.07;0.60;;;9.60;99.90;;;;;;5565917;25;20209;-68
2024/04/09 11:50:18;;;;;;;1.77;0.83;;;9.60;99.90;;;;;;5565817;25;20228;-68
2024/04/09 11:52:45;;;;;;;2.00;0.80;;;9.60;99.90;;;;;;5565555;25;20252;-68
2024/04/09 11:55:13;;;;;;;2.37;0.80;;;9.70;99.90;;;;;;5565463;25;20217;-67
2024/04/09 11:57:41;;;;;;;2.23;0.80;;;9.80;99.90;;;;;;5565704;25;20753;-67
2024/04/09 12:00:12;;;;;;;1.30;0.70;;;9.80;99.90;;;;;;5565270;25;20237;-68
2024/04/09 12:02:42;;;;;;;3.30;0.60;;;9.60;1.00;;;;;;5565438;25;20705;-68
2024/04/09 12:05:12;;;;;;;2.17;0.40;;;9.50;1.00;;;;;;5565305;25;20641;-68
2024/04/09 12:07:37;;;;;;;1.90;0.60;;;9.50;38.50;;;;;;5565018;25;20221;-67
2024/04/09 12:10:07;;;;;;;1.60;1.07;;;9.50;1.00;;;;;;5565117;25;20257;-68
2024/04/09 12:12:34;;;;;;;1.47;0.40;;;9.40;99.90;;;;;;5564990;25;20280;-68
2024/04/09 12:15:03;;;;;;;0.77;0.60;;;9.40;99.90;;;;;;5564816;25;20217;-68
2024/04/09 12:17:29;;;;;;;2.80;0.60;;;9.40;1.00;;;;;;5565481;25;20221;-68
2024/04/09 12:20:01;;;;;;;1.37;1.27;;;9.30;1.00;;;;;;5564790;25;20233;-67
2024/04/09 12:22:28;;;;;;;0.80;0.43;;;9.30;1.00;;;;;;5565431;25;20205;-68
2024/04/09 12:24:56;;;;;;;0.63;0.63;;;9.40;1.00;;;;;;5564909;25;20297;-68
2024/04/09 12:27:22;;;;;;;1.00;0.50;;;9.30;1.00;;;;;;5565300;25;20213;-68
2024/04/09 12:29:51;;;;;;;0.87;0.60;;;9.30;99.90;;;;;;5564741;25;20256;-67
2024/04/09 12:32:17;;;;;;;0.87;0.67;;;9.40;99.90;;;;;;5564759;25;20225;-68
2024/04/09 12:34:46;;;;;;;1.30;0.47;;;9.40;99.90;;;;;;5564293;25;20229;-67
2024/04/09 12:37:14;;;;;;;0.97;0.60;;;9.30;99.90;;;;;;5564139;25;20573;-68
2024/04/09 12:39:43;;;;;;;0.60;0.50;;;9.30;1.00;;;;;;5564449;25;20225;-68
2024/04/09 12:42:09;;;;;;;1.87;0.87;;;9.20;1.00;;;;;;5565047;25;20253;-68
2024/04/09 12:44:38;;;;;;;0.53;0.40;;;9.30;99.90;;;;;;5563790;25;20267;-68
2024/04/09 12:47:05;;;;;;;1.30;0.60;;;9.30;99.90;;;;;;5564549;25;20617;-68
2024/04/09 12:49:34;;;;;;;2.83;0.70;;;9.40;1.00;;;;;;5564705;25;20225;-67
2024/04/09 12:52:00;;;;;;;0.90;0.60;;;9.40;1.00;;;;;;5564194;25;20233;-68
2024/04/09 12:54:31;;;;;;;0.93;0.50;;;9.30;1.00;;;;;;5564290;25;20317;-68